CMA CGM Tosca — FMEL — position and weather

sailwx.info

Track history (hours):
 
Tides and Currents Weather Stations Pressure Air Temp Water Temp Dewpoint Dewpoint Depression Visibility Wind Speed Wind Dir Waves Ship Positions

CMA CGM Tosca

Last reported at 2016-May-29 22:22 UTC. Time now 2016-May-30 16:28 UTC.
Position N 35°21' E 018°31'.

Length 334 m; draft 14.2 m.

Type: Ship. MMSI: 228335900.

Date/timePositionNaut miles runAvg speedWind from/ knotsBaromVisibWave heightAir tempDewpointWater temp
2016-May-29 22:22N 35°21' E 018°31'2915.8
2016-May-29 20:33N 35°30' E 017°57'1615.8
2016-May-29 19:33N 35°35' E 017°39'1715.9
2016-May-29 18:29N 35°40' E 017°19'1516.1
2016-May-29 17:32N 35°44' E 017°01'1616.3
2016-May-29 16:33N 35°49' E 016°42'8216.5
2016-May-29 11:33N 36°14' E 015°05'1616.4
2016-May-29 10:33N 36°19' E 014°46'1716.7
2016-May-29 09:33N 36°23' E 014°26'1615.9
2016-May-29 08:33N 36°26' E 014°06'4 3.9
2016-May-29 07:33N 36°28' E 014°03'1211.8
2016-May-29 06:34N 36°34' E 013°50'1616.4
2016-May-29 05:34N 36°39' E 013°30'1616.3
2016-May-29 04:34N 36°43' E 013°11'1616.2
2016-May-29 03:33N 36°49' E 012°52'1616.6
2016-May-29 02:34N 36°53' E 012°32'1716.7
2016-May-29 01:34N 36°59' E 012°12'1716.7
2016-May-29 00:34N 37°05' E 011°53'1616.3
2016-May-28 23:33N 37°12' E 011°34'1616.4
2016-May-28 22:33N 37°19' E 011°16'1616.3
2016-May-28 21:33N 37°25' E 010°57'1615.9
2016-May-28 20:33N 37°29' E 010°37'1616.2
2016-May-28 19:33N 37°33' E 010°17'1717.0
2016-May-28 18:31N 37°34' E 009°55'2016.5
2016-May-28 17:18N 37°36' E 009°30'1816.0
2016-May-28 16:10N 37°42' E 009°08'22516.6
2016-May-28 02:33N 37°11' E 004°27'1616.3
2016-May-28 01:33N 37°09' E 004°07'1716.7
2016-May-28 00:33N 37°07' E 003°46'1716.8
2016-May-27 23:33N 37°04' E 003°26'1917.1
2016-May-27 22:26N 37°01' E 003°02'1516.6
2016-May-27 21:33N 36°59' E 002°44'1616.5
2016-May-27 20:33N 36°56' E 002°23'1716.9
2016-May-27 19:33N 36°54' E 002°02'2117.3
2016-May-27 18:22N 36°50' E 001°37'1417.3
2016-May-27 17:33N 36°48' E 001°20'1717.3
2016-May-27 16:33N 36°46' E 000°59'1717.1
2016-May-27 15:33N 36°43' E 000°37'1716.9
2016-May-27 14:33N 36°40' E 000°16'1716.5
2016-May-27 13:31N 36°38' W 000°04'1616.9
2016-May-27 12:33N 36°36' W 000°25'1717.1
2016-May-27 11:33N 36°33' W 000°46'5717.6
2016-May-27 08:20N 36°24' W 001°56'1417.1
2016-May-27 07:31N 36°22' W 002°12'14317.0
2016-May-26 23:05N 36°00' W 005°08'1120.2
2016-May-26 22:34N 35°58' W 005°21'23015.2
2016-May-26 07:26N 37°27' W 009°45'1516.4
2016-May-26 06:31N 37°42' W 009°50'1616.4
2016-May-26 05:32N 37°58' W 009°53'2316.3
2016-May-26 04:07N 38°20' W 010°00'4116.2
2016-May-26 01:33N 39°01' W 010°08'61915.8
2016-May-24 10:28N 48°52' W 005°53'2217.8
2016-May-24 09:15N 49°03' W 005°23'6016.1
2016-May-24 05:32N 49°33' W 004°04'1816.3
2016-May-24 04:24N 49°42' W 003°40'1517.5
2016-May-24 03:34N 49°49' W 003°20'1918.7
2016-May-24 02:34N 49°58' W 002°54'1919.2
2016-May-24 01:33N 50°03' W 002°25'1818.5
2016-May-24 00:33N 50°04' W 001°57'1514.9
2016-May-23 23:33N 49°58' W 001°35'1515.2
2016-May-23 22:34N 49°50' W 001°16'1414.2
2016-May-23 21:34N 49°45' W 000°55'1414.4
2016-May-23 20:34N 49°40' W 000°34'1414.4
2016-May-23 19:34N 49°33' W 000°15'1312.5
2016-May-23 18:34N 49°30' E 000°04'4 4.1
2016-May-23 17:31N 49°29' E 000°10'0 0.0
2016-May-23 16:31N 49°29' E 000°10'0 0.0
2016-May-23 15:31N 49°29' E 000°10'0 0.0
2016-May-23 14:31N 49°29' E 000°10'0 0.0
2016-May-23 13:31N 49°29' E 000°10'0 0.0
2016-May-23 12:31N 49°29' E 000°10'0 0.0
2016-May-23 11:31N 49°29' E 000°10'0 0.0
2016-May-23 10:31N 49°29' E 000°10'0 0.0
2016-May-23 09:31N 49°29' E 000°10'0 0.0
2016-May-23 08:31N 49°29' E 000°10'0 0.0
2016-May-23 07:31N 49°29' E 000°10'0 0.0
2016-May-23 06:31N 49°29' E 000°10'0 0.0
2016-May-23 05:31N 49°29' E 000°10'0 0.0
2016-May-23 04:31N 49°29' E 000°10'0 0.0
2016-May-23 03:31N 49°29' E 000°10'0 0.0
2016-May-23 02:34N 49°29' E 000°10'5 4.7
2016-May-23 01:33N 49°30' E 000°03'10 9.9
2016-May-23 00:34N 49°34' W 000°11'1716.6
2016-May-22 23:33N 49°50' W 000°11'2020.3
2016-May-22 22:33N 50°11' W 000°10'1918.5
2016-May-22 21:33N 50°27' E 000°02'1919.0
2016-May-22 20:33N 50°33' E 000°30'2719.8
2016-May-22 19:13N 50°49' E 001°04'1421.7
2016-May-22 18:33N 50°58' E 001°22'1616.4
2016-May-22 17:34N 51°03' E 001°47'1414.4
2016-May-22 16:33N 51°03' E 002°09'2 1.8
2016-May-22 15:13N 51°00' E 002°11'0 0.0
2016-May-22 14:31N 51°00' E 002°11'0 0.0
2016-May-22 13:31N 51°00' E 002°11'0 0.0
2016-May-22 12:31N 51°00' E 002°11'0 0.0
2016-May-22 11:28N 51°00' E 002°11'0 0.0
2016-May-22 10:25N 51°00' E 002°11'0 0.0
2016-May-22 09:25N 51°00' E 002°11'1 1.7
2016-May-22 08:32N 51°02' E 002°10'1212.0
2016-May-22 07:33N 51°03' E 001°51'9 9.3
2016-May-22 06:33N 51°10' E 001°42'1919.0
2016-May-22 05:33N 51°24' E 002°02'1818.4
2016-May-22 04:33N 51°23' E 002°32'1414.0
2016-May-22 03:33N 51°25' E 002°54'1818.1
2016-May-22 02:33N 51°25' E 003°23'1212.3
2016-May-22 01:34N 51°25' E 003°43'9 9.2
2016-May-22 00:33N 51°24' E 003°57'8 8.4
2016-May-21 23:33N 51°24' E 004°11'7 7.0
2016-May-21 22:33N 51°17' E 004°16'0 0.1
2016-May-21 21:31N 51°17' E 004°16'0 0.0
2016-May-21 20:31N 51°17' E 004°16'0 0.0
2016-May-21 19:31N 51°17' E 004°16'0 0.0
2016-May-21 18:31N 51°17' E 004°16'0 0.0
2016-May-21 17:31N 51°17' E 004°16'0 0.0
2016-May-21 16:31N 51°17' E 004°16'0 0.0
2016-May-21 15:31N 51°17' E 004°16'0 0.0
2016-May-21 14:31N 51°17' E 004°16'0 0.0
2016-May-21 13:31N 51°17' E 004°16'0 0.0
2016-May-21 12:31N 51°17' E 004°16'0 0.0
2016-May-21 11:31N 51°17' E 004°16'0 0.0
2016-May-21 10:31N 51°17' E 004°16'0 0.0
2016-May-21 09:31N 51°17' E 004°16'0 0.0
2016-May-21 08:31N 51°17' E 004°16'0 0.0
2016-May-21 07:31N 51°17' E 004°16'0 0.0
2016-May-21 06:31N 51°17' E 004°16'0 0.0
2016-May-21 05:31N 51°17' E 004°16'0 0.0
2016-May-21 04:31N 51°17' E 004°16'0 0.0
2016-May-21 03:31N 51°17' E 004°16'0 0.0
2016-May-21 02:31N 51°17' E 004°16'0 0.0
2016-May-21 01:31N 51°17' E 004°16'0 0.0
2016-May-21 00:31N 51°17' E 004°16'0 0.0
2016-May-20 23:31N 51°17' E 004°16'0 0.0
2016-May-20 22:31N 51°17' E 004°16'0 0.0
2016-May-20 21:31N 51°17' E 004°16'0 0.0
2016-May-20 20:31N 51°17' E 004°16'0 0.0
2016-May-20 19:31N 51°17' E 004°16'0 0.0
2016-May-20 18:31N 51°17' E 004°16'0 0.0
2016-May-20 17:31N 51°17' E 004°16'0 0.0
2016-May-20 16:31N 51°17' E 004°16'0 0.0
2016-May-20 15:31N 51°17' E 004°16'0 0.0
2016-May-20 14:31N 51°17' E 004°16'0 0.0
2016-May-20 13:31N 51°17' E 004°16'0 0.0
2016-May-20 12:31N 51°17' E 004°16'1 0.9
2016-May-20 11:33N 51°18' E 004°16'5 4.6
2016-May-20 10:33N 51°22' E 004°13'8 7.9
2016-May-20 09:34N 51°26' E 004°01'1110.9
2016-May-20 08:33N 51°22' E 003°45'9 9.5
2016-May-20 07:33N 51°25' E 003°31'1514.7
2016-May-20 06:34N 51°24' E 003°07'8 8.3
2016-May-20 05:33N 51°32' E 003°07'1312.9
2016-May-20 04:33N 51°45' E 003°13'50 9.8
2016-May-19 23:27N 52°34' E 003°26'1213.0
2016-May-19 22:33N 52°43' E 003°38'  
Track history (hours):
 
Tides and Currents Weather Stations Pressure Air Temp Water Temp Dewpoint Dewpoint Depression Visibility Wind Speed Wind Dir Waves Ship Positions

CMA CGM Tosca

Last reported at 2016-May-29 22:22 UTC. Time now 2016-May-30 16:28 UTC.
Position N 35°21' E 018°31'.

Length 334 m; draft 14.2 m.

Type: Ship. MMSI: 228335900.

Date/timePositionNaut miles runAvg speedWind from/ knotsBaromVisibWave heightAir tempDewpointWater temp
2016-May-29 22:22N 35°21' E 018°31'2915.8
2016-May-29 20:33N 35°30' E 017°57'1615.8
2016-May-29 19:33N 35°35' E 017°39'1715.9
2016-May-29 18:29N 35°40' E 017°19'1516.1
2016-May-29 17:32N 35°44' E 017°01'1616.3
2016-May-29 16:33N 35°49' E 016°42'8216.5
2016-May-29 11:33N 36°14' E 015°05'1616.4
2016-May-29 10:33N 36°19' E 014°46'1716.7
2016-May-29 09:33N 36°23' E 014°26'1615.9
2016-May-29 08:33N 36°26' E 014°06'4 3.9
2016-May-29 07:33N 36°28' E 014°03'1211.8
2016-May-29 06:34N 36°34' E 013°50'1616.4
2016-May-29 05:34N 36°39' E 013°30'1616.3
2016-May-29 04:34N 36°43' E 013°11'1616.2
2016-May-29 03:33N 36°49' E 012°52'1616.6
2016-May-29 02:34N 36°53' E 012°32'1716.7
2016-May-29 01:34N 36°59' E 012°12'1716.7
2016-May-29 00:34N 37°05' E 011°53'1616.3
2016-May-28 23:33N 37°12' E 011°34'1616.4
2016-May-28 22:33N 37°19' E 011°16'1616.3
2016-May-28 21:33N 37°25' E 010°57'1615.9
2016-May-28 20:33N 37°29' E 010°37'1616.2
2016-May-28 19:33N 37°33' E 010°17'1717.0
2016-May-28 18:31N 37°34' E 009°55'2016.5
2016-May-28 17:18N 37°36' E 009°30'1816.0
2016-May-28 16:10N 37°42' E 009°08'22516.6
2016-May-28 02:33N 37°11' E 004°27'1616.3
2016-May-28 01:33N 37°09' E 004°07'1716.7
2016-May-28 00:33N 37°07' E 003°46'1716.8
2016-May-27 23:33N 37°04' E 003°26'1917.1
2016-May-27 22:26N 37°01' E 003°02'1516.6
2016-May-27 21:33N 36°59' E 002°44'1616.5
2016-May-27 20:33N 36°56' E 002°23'1716.9
2016-May-27 19:33N 36°54' E 002°02'2117.3
2016-May-27 18:22N 36°50' E 001°37'1417.3
2016-May-27 17:33N 36°48' E 001°20'1717.3
2016-May-27 16:33N 36°46' E 000°59'1717.1
2016-May-27 15:33N 36°43' E 000°37'1716.9
2016-May-27 14:33N 36°40' E 000°16'1716.5
2016-May-27 13:31N 36°38' W 000°04'1616.9
2016-May-27 12:33N 36°36' W 000°25'1717.1
2016-May-27 11:33N 36°33' W 000°46'5717.6
2016-May-27 08:20N 36°24' W 001°56'1417.1
2016-May-27 07:31N 36°22' W 002°12'14317.0
2016-May-26 23:05N 36°00' W 005°08'1120.2
2016-May-26 22:34N 35°58' W 005°21'23015.2
2016-May-26 07:26N 37°27' W 009°45'1516.4
2016-May-26 06:31N 37°42' W 009°50'1616.4
2016-May-26 05:32N 37°58' W 009°53'2316.3
2016-May-26 04:07N 38°20' W 010°00'4116.2
2016-May-26 01:33N 39°01' W 010°08'61915.8
2016-May-24 10:28N 48°52' W 005°53'2217.8
2016-May-24 09:15N 49°03' W 005°23'6016.1
2016-May-24 05:32N 49°33' W 004°04'1816.3
2016-May-24 04:24N 49°42' W 003°40'1517.5
2016-May-24 03:34N 49°49' W 003°20'1918.7
2016-May-24 02:34N 49°58' W 002°54'1919.2
2016-May-24 01:33N 50°03' W 002°25'1818.5
2016-May-24 00:33N 50°04' W 001°57'1514.9
2016-May-23 23:33N 49°58' W 001°35'1515.2
2016-May-23 22:34N 49°50' W 001°16'1414.2
2016-May-23 21:34N 49°45' W 000°55'1414.4
2016-May-23 20:34N 49°40' W 000°34'1414.4
2016-May-23 19:34N 49°33' W 000°15'1312.5
2016-May-23 18:34N 49°30' E 000°04'4 4.1
2016-May-23 17:31N 49°29' E 000°10'0 0.0
2016-May-23 16:31N 49°29' E 000°10'0 0.0
2016-May-23 15:31N 49°29' E 000°10'0 0.0
2016-May-23 14:31N 49°29' E 000°10'0 0.0
2016-May-23 13:31N 49°29' E 000°10'0 0.0
2016-May-23 12:31N 49°29' E 000°10'0 0.0
2016-May-23 11:31N 49°29' E 000°10'0 0.0
2016-May-23 10:31N 49°29' E 000°10'0 0.0
2016-May-23 09:31N 49°29' E 000°10'0 0.0
2016-May-23 08:31N 49°29' E 000°10'0 0.0
2016-May-23 07:31N 49°29' E 000°10'0 0.0
2016-May-23 06:31N 49°29' E 000°10'0 0.0
2016-May-23 05:31N 49°29' E 000°10'0 0.0
2016-May-23 04:31N 49°29' E 000°10'0 0.0
2016-May-23 03:31N 49°29' E 000°10'0 0.0
2016-May-23 02:34N 49°29' E 000°10'5 4.7
2016-May-23 01:33N 49°30' E 000°03'10 9.9
2016-May-23 00:34N 49°34' W 000°11'1716.6
2016-May-22 23:33N 49°50' W 000°11'2020.3
2016-May-22 22:33N 50°11' W 000°10'1918.5
2016-May-22 21:33N 50°27' E 000°02'1919.0
2016-May-22 20:33N 50°33' E 000°30'2719.8
2016-May-22 19:13N 50°49' E 001°04'1421.7
2016-May-22 18:33N 50°58' E 001°22'1616.4
2016-May-22 17:34N 51°03' E 001°47'1414.4
2016-May-22 16:33N 51°03' E 002°09'2 1.8
2016-May-22 15:13N 51°00' E 002°11'0 0.0
2016-May-22 14:31N 51°00' E 002°11'0 0.0
2016-May-22 13:31N 51°00' E 002°11'0 0.0
2016-May-22 12:31N 51°00' E 002°11'0 0.0
2016-May-22 11:28N 51°00' E 002°11'0 0.0
2016-May-22 10:25N 51°00' E 002°11'0 0.0
2016-May-22 09:25N 51°00' E 002°11'1 1.7
2016-May-22 08:32N 51°02' E 002°10'1212.0
2016-May-22 07:33N 51°03' E 001°51'9 9.3
2016-May-22 06:33N 51°10' E 001°42'1919.0
2016-May-22 05:33N 51°24' E 002°02'1818.4
2016-May-22 04:33N 51°23' E 002°32'1414.0
2016-May-22 03:33N 51°25' E 002°54'1818.1
2016-May-22 02:33N 51°25' E 003°23'1212.3
2016-May-22 01:34N 51°25' E 003°43'9 9.2
2016-May-22 00:33N 51°24' E 003°57'8 8.4
2016-May-21 23:33N 51°24' E 004°11'7 7.0
2016-May-21 22:33N 51°17' E 004°16'0 0.1
2016-May-21 21:31N 51°17' E 004°16'0 0.0
2016-May-21 20:31N 51°17' E 004°16'0 0.0
2016-May-21 19:31N 51°17' E 004°16'0 0.0
2016-May-21 18:31N 51°17' E 004°16'0 0.0
2016-May-21 17:31N 51°17' E 004°16'0 0.0
2016-May-21 16:31N 51°17' E 004°16'0 0.0
2016-May-21 15:31N 51°17' E 004°16'0 0.0
2016-May-21 14:31N 51°17' E 004°16'0 0.0
2016-May-21 13:31N 51°17' E 004°16'0 0.0
2016-May-21 12:31N 51°17' E 004°16'0 0.0
2016-May-21 11:31N 51°17' E 004°16'0 0.0
2016-May-21 10:31N 51°17' E 004°16'0 0.0
2016-May-21 09:31N 51°17' E 004°16'0 0.0
2016-May-21 08:31N 51°17' E 004°16'0 0.0
2016-May-21 07:31N 51°17' E 004°16'0 0.0
2016-May-21 06:31N 51°17' E 004°16'0 0.0
2016-May-21 05:31N 51°17' E 004°16'0 0.0
2016-May-21 04:31N 51°17' E 004°16'0 0.0
2016-May-21 03:31N 51°17' E 004°16'0 0.0
2016-May-21 02:31N 51°17' E 004°16'0 0.0
2016-May-21 01:31N 51°17' E 004°16'0 0.0
2016-May-21 00:31N 51°17' E 004°16'0 0.0
2016-May-20 23:31N 51°17' E 004°16'0 0.0
2016-May-20 22:31N 51°17' E 004°16'0 0.0
2016-May-20 21:31N 51°17' E 004°16'0 0.0
2016-May-20 20:31N 51°17' E 004°16'0 0.0
2016-May-20 19:31N 51°17' E 004°16'0 0.0
2016-May-20 18:31N 51°17' E 004°16'0 0.0
2016-May-20 17:31N 51°17' E 004°16'0 0.0
2016-May-20 16:31N 51°17' E 004°16'0 0.0
2016-May-20 15:31N 51°17' E 004°16'0 0.0
2016-May-20 14:31N 51°17' E 004°16'0 0.0
2016-May-20 13:31N 51°17' E 004°16'0 0.0
2016-May-20 12:31N 51°17' E 004°16'1 0.9
2016-May-20 11:33N 51°18' E 004°16'5 4.6
2016-May-20 10:33N 51°22' E 004°13'8 7.9
2016-May-20 09:34N 51°26' E 004°01'1110.9
2016-May-20 08:33N 51°22' E 003°45'9 9.5
2016-May-20 07:33N 51°25' E 003°31'1514.7
2016-May-20 06:34N 51°24' E 003°07'8 8.3
2016-May-20 05:33N 51°32' E 003°07'1312.9
2016-May-20 04:33N 51°45' E 003°13'50 9.8
2016-May-19 23:27N 52°34' E 003°26'1213.0
2016-May-19 22:33N 52°43' E 003°38'  

Dump ship's entire track history